Time;durP1;ratioP1;P1;durP2;ratioP2;P2;SDS_P1;SDS_P2;PMS_P1;PMS_P2;Temp;Humidity;BMP_temperature;BMP_pressure;BME280_temperature;BME280_humidity;BME280_pressure;Samples;Min_cycle;Max_cycle;Signal;HPM_P1;HPM_P2
2024/03/24 00:00:47;;;;;;;8.00;7.20;;;;;;;10.87;96.81;99033.22;87246;266;137576;-71
2024/03/24 00:02:47;;;;;;;9.10;8.20;;;;;;;10.85;97.00;99028.04;87219;266;23663;-72
2024/03/24 00:04:48;;;;;;;7.90;7.20;;;;;;;10.83;97.34;99032.33;87603;266;136342;-71
2024/03/24 00:06:49;;;;;;;8.80;8.00;;;;;;;10.83;97.58;99036.56;87756;274;25076;-71
2024/03/24 00:08:51;;;;;;;11.00;8.10;;;;;;;10.83;97.56;99029.66;87612;274;137649;-70
2024/03/24 00:10:52;;;;;;;8.50;7.60;;;;;;;10.82;97.60;99022.88;87132;271;25226;-72
2024/03/24 00:12:53;;;;;;;8.00;7.30;;;;;;;10.82;97.69;99024.14;86985;273;136258;-71
2024/03/24 00:14:54;;;;;;;7.80;7.10;;;;;;;10.79;98.02;99013.95;87522;274;22563;-70
2024/03/24 00:16:55;;;;;;;8.40;7.50;;;;;;;10.78;98.13;99012.95;87128;270;136429;-71
2024/03/24 00:18:57;;;;;;;8.80;7.90;;;;;;;10.78;98.21;99003.08;87224;271;24049;-71
2024/03/24 00:20:59;;;;;;;7.60;6.80;;;;;;;10.75;98.52;99000.08;87414;273;136851;-70
2024/03/24 00:22:59;;;;;;;8.70;6.90;;;;;;;10.74;98.76;98997.58;87247;267;25105;-73
2024/03/24 00:25:00;;;;;;;9.10;8.20;;;;;;;10.69;99.23;98996.98;87106;274;137189;-71
2024/03/24 00:27:00;;;;;;;8.00;7.30;;;;;;;10.67;99.82;98993.14;87167;274;22562;-72
2024/03/24 00:29:01;;;;;;;8.50;7.70;;;;;;;10.63;100.00;98994.25;87321;271;136241;-73
2024/03/24 00:31:02;;;;;;;7.90;7.00;;;;;;;10.61;100.00;98988.37;87592;280;25115;-73
2024/03/24 00:33:03;;;;;;;7.60;6.90;;;;;;;10.58;100.00;98986.27;87668;271;136552;-71
2024/03/24 00:35:05;;;;;;;7.70;6.90;;;;;;;10.57;100.00;98980.91;87129;270;24145;-74
2024/03/24 00:37:06;;;;;;;7.70;7.00;;;;;;;10.57;100.00;98985.27;87179;267;137570;-72
2024/03/24 00:39:07;;;;;;;8.40;7.60;;;;;;;10.55;100.00;98985.80;87565;275;22554;-73
2024/03/24 00:41:08;;;;;;;8.50;7.70;;;;;;;10.53;100.00;98979.40;87574;267;136714;-73
2024/03/24 00:43:09;;;;;;;8.20;7.40;;;;;;;10.51;100.00;98976.63;87617;265;24773;-72
2024/03/24 00:45:09;;;;;;;9.30;8.50;;;;;;;10.49;100.00;98976.04;87109;278;136479;-73
2024/03/24 00:47:10;;;;;;;8.30;7.30;;;;;;;10.47;100.00;98972.52;87228;274;22525;-71
2024/03/24 00:49:11;;;;;;;8.70;7.90;;;;;;;10.45;100.00;98969.23;87121;266;136888;-74
2024/03/24 00:51:11;;;;;;;8.50;7.60;;;;;;;10.43;100.00;98968.77;87535;270;23496;-73
2024/03/24 00:53:12;;;;;;;8.40;7.50;;;;;;;10.40;100.00;98966.14;87583;273;137795;-73
2024/03/24 00:55:13;;;;;;;8.10;7.20;;;;;;;10.39;100.00;98967.25;87207;269;22570;-74
2024/03/24 00:57:13;;;;;;;9.30;7.90;;;;;;;10.36;100.00;98959.65;87112;274;136954;-74
2024/03/24 00:59:15;;;;;;;9.40;8.50;;;;;;;10.33;100.00;98955.63;87171;270;22534;-73
2024/03/24 01:01:15;;;;;;;8.90;8.00;;;;;;;10.29;100.00;98951.05;87030;279;136742;-69
2024/03/24 01:03:16;;;;;;;8.70;7.90;;;;;;;10.26;100.00;98960.98;87029;263;22649;-73
2024/03/24 01:05:17;;;;;;;8.30;7.60;;;;;;;10.24;100.00;98954.95;86977;271;136813;-72
2024/03/24 01:07:18;;;;;;;8.70;7.80;;;;;;;10.22;100.00;98955.21;87168;273;22568;-70
2024/03/24 01:09:18;;;;;;;10.00;8.10;;;;;;;10.18;100.00;98956.00;87010;269;137280;-71
2024/03/24 01:11:19;;;;;;;9.80;8.70;;;;;;;10.16;100.00;98956.83;87197;273;22567;-71
2024/03/24 01:13:22;;;;;;;8.50;7.70;;;;;;;10.12;100.00;98957.84;86931;279;136961;-71
2024/03/24 01:15:22;;;;;;;10.20;9.10;;;;;;;10.09;100.00;98963.85;87321;278;24443;-73
2024/03/24 01:17:23;;;;;;;9.70;8.70;;;;;;;10.06;100.00;98951.69;87134;278;137074;-70
2024/03/24 01:19:24;;;;;;;9.30;8.40;;;;;;;10.05;100.00;98952.31;87256;266;22571;-70
2024/03/24 01:21:24;;;;;;;10.70;8.80;;;;;;;10.04;100.00;98958.30;87190;269;137598;-71
2024/03/24 01:23:25;;;;;;;9.60;8.70;;;;;;;10.04;100.00;98954.73;87279;270;22609;-71
2024/03/24 01:25:26;;;;;;;9.70;7.90;;;;;;;10.04;100.00;98955.84;87112;278;138639;-70
2024/03/24 01:27:27;;;;;;;8.40;7.70;;;;;;;10.04;100.00;98954.96;87163;262;22636;-71
2024/03/24 01:29:27;;;;;;;8.70;7.90;;;;;;;10.04;100.00;98954.20;87113;277;138123;-72
2024/03/24 01:31:28;;;;;;;9.80;8.60;;;;;;;10.03;100.00;98949.35;87151;274;22570;-71
2024/03/24 01:33:29;;;;;;;9.40;8.50;;;;;;;10.03;100.00;98947.64;86844;279;137836;-71
2024/03/24 01:35:29;;;;;;;12.70;9.20;;;;;;;10.01;100.00;98945.09;87108;278;23896;-72
2024/03/24 01:37:30;;;;;;;9.00;8.20;;;;;;;9.97;100.00;98945.27;87011;275;142150;-73
2024/03/24 01:39:31;;;;;;;8.90;8.10;;;;;;;9.93;100.00;98944.00;87143;270;22566;-71
2024/03/24 01:41:31;;;;;;;8.60;7.70;;;;;;;9.90;100.00;98942.73;87029;270;136310;-71
2024/03/24 01:43:32;;;;;;;9.40;8.60;;;;;;;9.87;100.00;98937.67;87011;279;22570;-72
2024/03/24 01:45:33;;;;;;;9.80;8.40;;;;;;;9.84;100.00;98937.53;87108;275;137670;-72
2024/03/24 01:47:35;;;;;;;10.10;8.20;;;;;;;9.83;100.00;98929.80;87414;266;22560;-70
2024/03/24 01:49:36;;;;;;;9.70;8.70;;;;;;;9.84;100.00;98929.55;87549;269;136846;-74
2024/03/24 01:51:37;;;;;;;9.50;8.60;;;;;;;9.83;100.00;98929.40;87422;271;25188;-70
2024/03/24 01:53:39;;;;;;;10.10;9.00;;;;;;;9.82;100.00;98924.00;87012;271;136789;-72
2024/03/24 01:55:40;;;;;;;9.80;8.80;;;;;;;9.82;100.00;98920.31;87143;278;22645;-70
2024/03/24 01:57:44;;;;;;;9.10;8.30;;;;;;;9.81;100.00;98916.84;87122;270;136961;-74
2024/03/24 01:59:44;;;;;;;9.00;8.10;;;;;;;9.81;100.00;98912.73;87439;271;23341;-72
2024/03/24 02:01:45;;;;;;;9.40;8.50;;;;;;;9.82;100.00;98912.03;87537;274;136460;-71
2024/03/24 02:03:46;;;;;;;9.20;8.30;;;;;;;9.82;100.00;98910.29;87463;269;22560;-71
2024/03/24 02:05:46;;;;;;;9.20;8.30;;;;;;;9.83;100.00;98921.79;86770;278;138158;-75
2024/03/24 02:07:47;;;;;;;10.00;9.00;;;;;;;9.82;100.00;98925.42;87489;274;23334;-72
2024/03/24 02:09:48;;;;;;;13.60;8.80;;;;;;;9.80;100.00;98910.63;86935;271;136806;-72
2024/03/24 02:11:49;;;;;;;10.80;8.60;;;;;;;9.77;100.00;98908.31;87018;271;22579;-75
2024/03/24 02:13:59;;;;;;;10.00;9.10;;;;;;;9.75;100.00;98913.45;87534;266;136762;-71
2024/03/24 02:16:00;;;;;;;10.10;8.90;;;;;;;9.75;100.00;98918.86;87599;270;22560;-71
2024/03/24 02:18:01;;;;;;;8.90;8.10;;;;;;;9.77;100.00;98921.75;87134;270;136302;-74
2024/03/24 02:20:03;;;;;;;9.60;8.60;;;;;;;9.75;100.00;98925.39;87659;274;22639;-72
2024/03/24 02:22:04;;;;;;;9.50;8.20;;;;;;;9.75;100.00;98924.91;87658;274;23741;-71
2024/03/24 02:24:05;;;;;;;9.80;8.90;;;;;;;9.73;100.00;98912.73;87075;262;136667;-73
2024/03/24 02:26:06;;;;;;;13.10;8.80;;;;;;;9.71;100.00;98910.73;87601;273;22549;-72
2024/03/24 02:28:07;;;;;;;11.10;9.00;;;;;;;9.69;100.00;98915.34;87057;273;137628;-72
2024/03/24 02:30:10;;;;;;;10.50;8.90;;;;;;;9.67;100.00;98915.33;87124;270;22740;-71
2024/03/24 02:32:11;;;;;;;8.80;7.90;;;;;;;9.65;100.00;98913.37;86676;278;783212;-71
2024/03/24 02:34:12;;;;;;;10.30;9.30;;;;;;;9.63;100.00;98910.60;87098;275;23736;-71
2024/03/24 02:36:13;;;;;;;10.00;9.10;;;;;;;9.58;100.00;98907.54;87033;279;138423;-70
2024/03/24 02:38:14;;;;;;;10.70;9.40;;;;;;;9.54;100.00;98896.97;87140;270;24132;-70
2024/03/24 02:40:15;;;;;;;11.70;10.00;;;;;;;9.51;100.00;98899.04;87161;262;136712;-73
2024/03/24 02:42:16;;;;;;;10.40;9.30;;;;;;;9.50;100.00;98906.54;87669;271;22693;-72
2024/03/24 02:44:16;;;;;;;10.80;9.80;;;;;;;9.48;100.00;98904.33;87604;273;136781;-71
2024/03/24 02:46:17;;;;;;;10.60;9.20;;;;;;;9.45;100.00;98899.69;87829;271;22564;-73
2024/03/24 02:48:18;;;;;;;12.90;10.20;;;;;;;9.41;100.00;98901.15;87517;270;137106;-73
2024/03/24 02:50:18;;;;;;;10.80;9.80;;;;;;;9.38;100.00;98903.27;87632;278;22587;-73
2024/03/24 02:52:19;;;;;;;11.10;10.00;;;;;;;9.35;100.00;98903.45;87597;265;137000;-73
2024/03/24 02:54:20;;;;;;;11.30;9.90;;;;;;;9.34;100.00;98908.03;87206;272;24640;-74
2024/03/24 02:56:20;;;;;;;10.00;9.00;;;;;;;9.31;100.00;98904.70;87428;271;138193;-72
2024/03/24 02:58:21;;;;;;;11.80;10.50;;;;;;;9.28;100.00;98911.36;87550;274;22846;-72
2024/03/24 03:00:22;;;;;;;10.50;9.40;;;;;;;9.27;100.00;98915.08;87687;270;136961;-74
2024/03/24 03:02:22;;;;;;;11.70;10.20;;;;;;;9.24;100.00;98916.11;87277;270;22704;-77
2024/03/24 03:04:23;;;;;;;11.40;10.20;;;;;;;9.25;100.00;98911.20;87260;269;138795;-75
2024/03/24 03:06:24;;;;;;;11.70;10.50;;;;;;;9.24;100.00;98909.65;87320;269;22568;-78
2024/03/24 03:08:25;;;;;;;12.80;11.20;;;;;;;9.23;100.00;98912.56;87227;266;137019;-75
2024/03/24 03:10:25;;;;;;;10.50;9.50;;;;;;;9.22;100.00;98910.50;87204;271;22719;-79
2024/03/24 03:12:26;;;;;;;11.60;9.80;;;;;;;9.22;100.00;98908.53;87177;280;138401;-78
2024/03/24 03:14:27;;;;;;;11.50;10.20;;;;;;;9.21;100.00;98911.23;87371;270;25254;-76
2024/03/24 03:16:28;;;;;;;11.30;10.20;;;;;;;9.21;100.00;98908.81;87823;279;136645;-76
2024/03/24 03:18:28;;;;;;;10.60;9.50;;;;;;;9.20;100.00;98911.89;87735;276;22543;-73
2024/03/24 03:20:29;;;;;;;11.30;10.10;;;;;;;9.20;100.00;98906.82;88513;271;138702;-74
2024/03/24 03:22:30;;;;;;;11.70;9.50;;;;;;;9.20;100.00;98905.76;89238;275;22605;-81
2024/03/24 03:24:30;;;;;;;11.60;9.40;;;;;;;9.19;100.00;98904.08;89546;266;136286;-73
2024/03/24 03:26:31;;;;;;;11.20;10.10;;;;;;;9.17;100.00;98903.48;89903;264;22589;-76
2024/03/24 03:28:32;;;;;;;12.30;9.60;;;;;;;9.15;100.00;98902.48;89768;271;136922;-74
2024/03/24 03:30:33;;;;;;;10.70;9.60;;;;;;;9.15;100.00;98897.56;88199;279;22522;-80
2024/03/24 03:32:35;;;;;;;10.20;9.10;;;;;;;9.14;100.00;98895.90;88245;270;136895;-81
2024/03/24 03:34:36;;;;;;;11.50;10.40;;;;;;;9.10;100.00;98895.02;88262;269;22513;-79
2024/03/24 03:36:36;;;;;;;11.80;10.30;;;;;;;9.07;100.00;98892.58;88010;270;136990;-76
2024/03/24 03:38:37;;;;;;;10.30;9.30;;;;;;;9.02;100.00;98894.66;87786;274;23607;-80
2024/03/24 03:40:39;;;;;;;10.30;9.20;;;;;;;8.99;100.00;98892.50;87495;266;136629;-80
2024/03/24 03:42:40;;;;;;;12.90;9.80;;;;;;;8.96;100.00;98894.37;87168;275;22633;-82
2024/03/24 03:44:42;;;;;;;11.80;10.50;;;;;;;8.95;100.00;98897.48;87205;273;136828;-81
2024/03/24 03:46:42;;;;;;;11.60;10.50;;;;;;;8.94;100.00;98892.09;87278;270;23285;-76
2024/03/24 03:48:44;;;;;;;13.40;10.60;;;;;;;8.93;100.00;98894.11;87200;274;136783;-77
2024/03/24 03:50:46;;;;;;;12.10;10.80;;;;;;;8.90;100.00;98893.38;87224;269;23743;-79
2024/03/24 03:52:47;;;;;;;12.70;11.50;;;;;;;8.87;100.00;98896.14;87195;269;136912;-80
2024/03/24 03:54:50;;;;;;;13.60;10.70;;;;;;;8.81;100.00;98892.39;87285;273;22557;-78
2024/03/24 03:56:51;;;;;;;13.40;10.20;;;;;;;8.77;100.00;98894.42;87102;270;137961;-80
2024/03/24 03:58:51;;;;;;;12.10;10.80;;;;;;;8.73;100.00;98889.71;87342;270;25312;-80
2024/03/24 04:00:52;;;;;;;11.70;10.50;;;;;;;8.70;100.00;98892.30;87148;275;138294;-79
2024/03/24 04:02:54;;;;;;;13.10;10.50;;;;;;;8.67;100.00;98886.25;87275;273;22708;-79
2024/03/24 04:04:54;;;;;;;12.90;11.50;;;;;;;8.64;100.00;98888.90;87128;270;136407;-76
2024/03/24 04:06:57;;;;;;;13.70;11.60;;;;;;;8.61;100.00;98892.66;87115;271;25234;-78
2024/03/24 04:08:59;;;;;;;13.50;10.40;;;;;;;8.56;100.00;98894.56;87261;274;137745;-79
2024/03/24 04:11:00;;;;;;;13.00;11.60;;;;;;;8.54;100.00;98897.30;87166;265;24214;-85
2024/03/24 04:13:02;;;;;;;12.30;11.00;;;;;;;8.52;100.00;98903.40;87240;272;137127;-72
2024/03/24 04:15:04;;;;;;;13.10;11.70;;;;;;;8.52;100.00;98899.85;87834;274;22561;-79
2024/03/24 04:17:06;;;;;;;13.90;10.90;;;;;;;8.53;100.00;98895.33;88011;274;136958;-80
2024/03/24 04:19:08;;;;;;;11.50;9.60;;;;;;;8.54;100.00;98897.11;87666;277;22575;-81
2024/03/24 04:21:08;;;;;;;15.60;12.00;;;;;;;8.54;100.00;98898.29;87339;266;136857;-82
2024/03/24 04:23:09;;;;;;;13.30;11.80;;;;;;;8.54;100.00;98896.73;87396;277;24274;-76
2024/03/24 04:25:10;;;;;;;13.40;11.60;;;;;;;8.53;100.00;98900.41;87304;271;139719;-82
2024/03/24 04:27:11;;;;;;;12.20;11.00;;;;;;;8.50;100.00;98903.60;87219;279;23994;-81
2024/03/24 04:29:12;;;;;;;15.00;11.70;;;;;;;8.49;100.00;98900.38;87237;277;138216;-82
2024/03/24 04:31:12;;;;;;;11.00;9.80;;;;;;;8.47;100.00;98899.98;87254;274;22580;-79
2024/03/24 04:33:13;;;;;;;12.00;10.70;;;;;;;8.45;100.00;98900.86;87258;266;136835;-82
2024/03/24 04:35:14;;;;;;;13.40;11.80;;;;;;;8.44;100.00;98899.90;87202;275;22556;-80
2024/03/24 04:37:15;;;;;;;13.30;12.00;;;;;;;8.43;100.00;98902.73;87257;266;137163;-75
2024/03/24 04:39:18;;;;;;;16.20;12.70;;;;;;;8.40;100.00;98896.14;87224;269;24004;-73
2024/03/24 04:41:20;;;;;;;14.50;12.30;;;;;;;8.41;100.00;98897.70;87344;269;137132;-85
2024/03/24 04:43:21;;;;;;;14.00;12.50;;;;;;;8.42;100.00;98897.67;87406;276;24023;-80
2024/03/24 04:45:21;;;;;;;14.40;11.40;;;;;;;8.42;100.00;98898.64;87190;270;136991;-74
2024/03/24 04:47:22;;;;;;;13.40;12.00;;;;;;;8.38;100.00;98893.35;87223;275;22574;-79
2024/03/24 04:49:23;;;;;;;19.00;12.60;;;;;;;8.35;100.00;98891.45;87183;270;138354;-84
2024/03/24 04:51:24;;;;;;;16.20;13.40;;;;;;;8.30;100.00;98892.48;87441;270;22615;-85
2024/03/24 04:53:28;;;;;;;15.10;12.20;;;;;;;8.30;100.00;98894.70;87560;266;138462;-74
2024/03/24 04:55:29;;;;;;;13.70;12.20;;;;;;;8.28;100.00;98896.77;87988;277;22536;-83
2024/03/24 04:57:30;;;;;;;14.00;12.50;;;;;;;8.26;100.00;98892.53;88070;266;136960;-82
2024/03/24 04:59:31;;;;;;;15.30;13.60;;;;;;;8.25;100.00;98895.85;88207;276;24697;-84
2024/03/24 05:01:32;;;;;;;14.00;12.50;;;;;;;8.25;100.00;98898.19;87558;274;136915;-80
2024/03/24 05:03:33;;;;;;;13.40;12.00;;;;;;;8.25;100.00;98894.70;87463;267;24065;-80
2024/03/24 05:05:33;;;;;;;14.60;11.90;;;;;;;8.23;100.00;98893.45;87307;277;137072;-80
2024/03/24 05:07:34;;;;;;;13.70;12.20;;;;;;;8.23;100.00;98892.10;87474;271;25208;-80
2024/03/24 05:09:35;;;;;;;13.60;11.80;;;;;;;8.23;100.00;98890.52;87419;273;138157;-82
2024/03/24 05:11:36;;;;;;;15.20;13.30;;;;;;;8.25;100.00;98889.40;87378;270;25183;-73
2024/03/24 05:13:39;;;;;;;16.40;12.60;;;;;;;8.26;100.00;98886.41;88141;270;138066;-78
2024/03/24 05:15:39;;;;;;;15.10;12.40;;;;;;;8.25;100.00;98883.44;87289;271;22559;-82
2024/03/24 05:17:40;;;;;;;13.80;11.90;;;;;;;8.24;100.00;98886.63;87924;267;138097;-78
2024/03/24 05:19:41;;;;;;;14.10;12.30;;;;;;;8.23;100.00;98891.20;88790;263;22531;-74
2024/03/24 05:21:43;;;;;;;14.30;12.80;;;;;;;8.23;100.00;98891.17;87333;270;137006;-76
2024/03/24 05:23:44;;;;;;;13.70;11.70;;;;;;;8.23;100.00;98894.02;87279;270;23150;-76
2024/03/24 05:25:52;;;;;;;14.60;12.70;;;;;;;8.23;100.00;98894.60;87132;273;137513;-78
2024/03/24 05:27:53;;;;;;;15.20;13.40;;;;;;;8.20;100.00;98891.74;87528;270;23404;-81
2024/03/24 05:29:53;;;;;;;14.10;12.50;;;;;;;8.19;100.00;98892.10;87569;273;141545;-78
2024/03/24 05:31:56;;;;;;;15.90;12.10;;;;;;;8.16;100.00;98888.24;87226;269;24154;-75
2024/03/24 05:33:58;;;;;;;15.30;13.70;;;;;;;8.13;100.00;98890.51;87752;270;136691;-78
2024/03/24 05:36:03;;;;;;;15.90;13.20;;;;;;;8.10;100.00;98892.90;87169;265;22640;-76
2024/03/24 05:38:04;;;;;;;15.20;12.70;;;;;;;8.08;100.00;98892.52;88568;266;22559;-79
2024/03/24 05:40:06;;;;;;;14.70;12.90;;;;;;;8.07;100.00;98896.88;88453;261;136759;-80
2024/03/24 05:42:07;;;;;;;13.40;11.80;;;;;;;8.05;100.00;98893.66;87525;262;22623;-81
2024/03/24 05:44:08;;;;;;;13.50;12.10;;;;;;;7.99;100.00;98882.27;87101;270;136934;-79
2024/03/24 05:46:08;;;;;;;15.80;13.40;;;;;;;7.95;100.00;98889.78;87135;269;22559;-80
2024/03/24 05:48:10;;;;;;;15.00;13.40;;;;;;;7.92;100.00;98890.40;87028;261;137260;-80
2024/03/24 05:50:11;;;;;;;14.90;11.90;;;;;;;7.92;100.00;98888.53;87131;269;22571;-81
2024/03/24 05:52:12;;;;;;;15.10;13.40;;;;;;;7.90;100.00;98894.78;87386;278;137166;-80
2024/03/24 05:54:12;;;;;;;15.70;13.30;;;;;;;7.89;100.00;98893.93;87118;270;22533;-74
2024/03/24 05:56:13;;;;;;;13.20;11.50;;;;;;;7.90;100.00;98892.12;87045;266;138376;-77
2024/03/24 05:58:13;;;;;;;16.20;12.00;;;;;;;7.90;100.00;98890.34;87163;277;22649;-80
2024/03/24 06:00:15;;;;;;;15.40;13.40;;;;;;;7.90;100.00;98890.17;87113;271;136972;-81
2024/03/24 06:02:17;;;;;;;14.10;12.20;;;;;;;7.88;100.00;98886.51;88497;266;26192;-75
2024/03/24 06:04:17;;;;;;;14.50;12.90;;;;;;;7.88;100.00;98888.02;87182;273;137281;-77
2024/03/24 06:06:19;;;;;;;16.70;13.60;;;;;;;7.86;100.00;98887.52;87205;274;24065;-80
2024/03/24 06:08:19;;;;;;;14.50;13.00;;;;;;;7.84;100.00;98886.50;87428;270;137147;-78
2024/03/24 06:10:20;;;;;;;14.40;12.80;;;;;;;7.85;100.00;98887.11;87351;270;25907;-78
2024/03/24 06:12:21;;;;;;;19.40;13.70;;;;;;;7.85;100.00;98884.41;87125;266;137450;-79
2024/03/24 06:14:22;;;;;;;14.20;12.70;;;;;;;7.84;100.00;98880.02;87206;270;22709;-81
2024/03/24 06:16:23;;;;;;;13.80;12.30;;;;;;;7.83;100.00;98879.48;87100;266;138623;-78
2024/03/24 06:18:23;;;;;;;16.30;13.60;;;;;;;7.79;100.00;98875.00;87124;269;22606;-79
2024/03/24 06:20:24;;;;;;;16.80;13.00;;;;;;;7.78;100.00;98875.54;87046;277;137347;-81
2024/03/24 06:22:25;;;;;;;16.30;13.10;;;;;;;7.75;100.00;98872.66;87175;278;25114;-72
2024/03/24 06:24:25;;;;;;;17.70;14.50;;;;;;;7.74;100.00;98873.58;87088;270;137076;-80
2024/03/24 06:26:26;;;;;;;20.80;14.70;;;;;;;7.73;100.00;98870.64;87161;273;25935;-77
2024/03/24 06:28:27;;;;;;;16.30;13.80;;;;;;;7.74;100.00;98873.08;87163;276;137211;-73
2024/03/24 06:30:31;;;;;;;15.60;12.60;;;;;;;7.75;100.00;98874.35;86998;271;25239;-80
2024/03/24 06:35:04;;;;;;;17.30;14.20;;;;;;;7.63;100.00;98879.54;85094;300;604291;-83
2024/03/24 06:37:05;;;;;;;15.60;13.10;;;;;;;7.59;100.00;98883.62;86055;288;136372;-77
2024/03/24 06:39:09;;;;;;;15.50;13.40;;;;;;;7.57;100.00;98879.66;87092;280;24185;-78
2024/03/24 06:41:10;;;;;;;18.10;14.00;;;;;;;7.58;100.00;98880.60;86931;272;136186;-79
2024/03/24 06:43:19;;;;;;;15.10;12.80;;;;;;;7.58;100.00;98881.78;87032;273;25166;-72
2024/03/24 06:45:20;;;;;;;17.00;13.50;;;;;;;7.56;100.00;98878.25;86855;272;136402;-81
2024/03/24 06:47:21;;;;;;;18.10;14.30;;;;;;;7.56;100.00;98874.68;86962;269;24782;-73
2024/03/24 06:49:22;;;;;;;16.70;14.00;;;;;;;7.58;100.00;98878.90;86445;267;737894;-70
2024/03/24 06:51:22;;;;;;;18.50;13.40;;;;;;;7.63;100.00;98876.77;87148;267;22799;-78
2024/03/24 06:53:23;;;;;;;15.80;13.40;;;;;;;7.68;100.00;98878.92;87096;271;136148;-82
2024/03/24 06:55:26;;;;;;;15.40;13.80;;;;;;;7.72;100.00;98876.52;87204;270;22715;-80
2024/03/24 06:57:27;;;;;;;15.80;13.50;;;;;;;7.73;100.00;98874.35;89801;275;136881;-74
2024/03/24 06:59:28;;;;;;;19.60;14.20;;;;;;;7.78;100.00;98874.75;89971;272;22840;-80
2024/03/24 07:01:28;;;;;;;17.00;14.30;;;;;;;7.86;100.00;98883.31;90014;267;136867;-79
2024/03/24 07:03:29;;;;;;;19.20;15.70;;;;;;;7.91;100.00;98880.34;88620;270;22644;-70
2024/03/24 07:05:29;;;;;;;17.60;14.20;;;;;;;7.93;100.00;98871.61;87115;271;136722;-76
2024/03/24 07:07:31;;;;;;;16.90;13.80;;;;;;;7.96;100.00;98871.75;87131;271;24058;-74
2024/03/24 07:09:32;;;;;;;15.90;13.30;;;;;;;7.99;100.00;98879.95;86878;269;136500;-76
2024/03/24 07:11:32;;;;;;;17.40;14.60;;;;;;;8.02;100.00;98879.95;87056;275;22636;-77
2024/03/24 07:13:34;;;;;;;19.20;14.80;;;;;;;8.01;100.00;98885.34;87132;271;137764;-76
2024/03/24 07:15:35;;;;;;;16.90;14.10;;;;;;;7.97;100.00;98885.30;87134;272;22528;-77
2024/03/24 07:17:35;;;;;;;20.90;15.60;;;;;;;7.97;100.00;98876.84;87057;271;136701;-76
2024/03/24 07:19:38;;;;;;;19.60;14.60;;;;;;;7.98;100.00;98881.30;87622;271;22546;-74
2024/03/24 07:21:38;;;;;;;16.70;14.20;;;;;;;7.98;100.00;98884.55;87186;270;137824;-75
2024/03/24 07:23:39;;;;;;;15.30;13.20;;;;;;;7.95;100.00;98876.85;87236;268;23438;-73
2024/03/24 07:25:40;;;;;;;16.90;13.50;;;;;;;7.90;100.00;98880.45;87092;279;137739;-73
2024/03/24 07:27:41;;;;;;;19.50;14.70;;;;;;;7.84;100.00;98876.14;87177;271;22555;-75
2024/03/24 07:29:42;;;;;;;16.20;13.20;;;;;;;7.82;100.00;98869.11;87087;272;136867;-74
2024/03/24 07:31:43;;;;;;;17.20;15.00;;;;;;;7.80;100.00;98867.05;87171;271;22595;-74
2024/03/24 07:33:47;;;;;;;17.40;13.60;;;;;;;7.80;100.00;98866.06;87996;272;137432;-73
2024/03/24 07:35:48;;;;;;;16.40;14.10;;;;;;;7.81;100.00;98871.16;88401;279;22859;-72
2024/03/24 07:37:49;;;;;;;17.70;13.90;;;;;;;7.84;100.00;98869.80;86893;279;136593;-74
2024/03/24 07:39:49;;;;;;;15.50;13.70;;;;;;;7.86;100.00;98865.32;87055;268;22628;-76
2024/03/24 07:41:50;;;;;;;21.80;15.80;;;;;;;7.87;100.00;98864.00;88439;270;137858;-74
2024/03/24 07:43:51;;;;;;;19.70;14.90;;;;;;;7.90;100.00;98864.66;88481;271;22558;-73
2024/03/24 07:45:52;;;;;;;18.70;13.90;;;;;;;7.93;100.00;98860.09;86847;268;136738;-73
2024/03/24 07:47:52;;;;;;;16.40;14.00;;;;;;;7.95;100.00;98860.65;87128;270;25224;-73
2024/03/24 07:49:53;;;;;;;16.40;13.80;;;;;;;7.99;100.00;98859.58;88012;266;136552;-72
2024/03/24 07:51:54;;;;;;;17.30;14.80;;;;;;;8.03;100.00;98854.34;86714;279;22620;-73
2024/03/24 07:53:55;;;;;;;19.20;15.70;;;;;;;8.06;100.00;98849.84;86683;271;140576;-73
2024/03/24 07:55:56;;;;;;;18.80;15.10;;;;;;;8.10;100.00;98850.48;86968;273;25140;-74
2024/03/24 07:57:57;;;;;;;15.00;13.20;;;;;;;8.15;100.00;98850.14;87707;267;136621;-72
2024/03/24 07:59:57;;;;;;;16.60;14.60;;;;;;;8.20;100.00;98843.52;87049;271;22970;-74
2024/03/24 08:01:59;;;;;;;17.00;14.70;;;;;;;8.23;100.00;98841.87;87021;268;136382;-73
2024/03/24 08:04:01;;;;;;;17.00;14.20;;;;;;;8.23;100.00;98837.01;87219;270;24003;-74
2024/03/24 08:06:02;;;;;;;16.90;14.80;;;;;;;8.22;100.00;98836.65;89904;274;136534;-73
2024/03/24 08:08:03;;;;;;;17.00;13.90;;;;;;;8.23;100.00;98838.65;90150;271;137827;-74
2024/03/24 08:10:04;;;;;;;18.20;15.30;;;;;;;8.25;100.00;98831.62;90016;268;22863;-72
2024/03/24 08:12:09;;;;;;;18.00;14.00;;;;;;;8.25;100.00;98833.66;89810;276;136541;-73
2024/03/24 08:14:10;;;;;;;19.80;16.00;;;;;;;8.22;100.00;98823.70;89976;271;22903;-72
2024/03/24 08:16:11;;;;;;;17.10;13.70;;;;;;;8.22;100.00;98822.40;89662;269;136827;-74
2024/03/24 08:18:12;;;;;;;16.10;14.20;;;;;;;8.21;100.00;98814.14;89984;273;22245;-74
2024/03/24 08:20:13;;;;;;;15.80;14.20;;;;;;;8.18;100.00;98808.44;90145;271;136639;-74
2024/03/24 08:22:14;;;;;;;15.60;13.60;;;;;;;8.19;100.00;98813.46;89585;274;25252;-76
2024/03/24 08:24:16;;;;;;;18.00;15.50;;;;;;;8.20;100.00;98802.80;88243;270;136927;-74
2024/03/24 08:26:17;;;;;;;16.50;14.70;;;;;;;8.21;100.00;98807.45;88481;272;25192;-78
2024/03/24 08:28:19;;;;;;;19.30;14.60;;;;;;;8.20;100.00;98800.55;88366;275;138543;-75
2024/03/24 08:30:20;;;;;;;16.70;14.30;;;;;;;8.20;100.00;98802.77;88307;272;22563;-72
2024/03/24 08:32:20;;;;;;;19.50;15.70;;;;;;;8.26;100.00;98802.05;88213;281;136905;-76
2024/03/24 08:34:21;;;;;;;17.90;15.60;;;;;;;8.32;100.00;98800.42;87241;271;23959;-76
2024/03/24 08:36:22;;;;;;;15.40;13.70;;;;;;;8.39;100.00;98795.73;87249;267;138120;-75
2024/03/24 08:38:22;;;;;;;23.60;15.00;;;;;;;8.44;100.00;98792.14;87928;271;22631;-77
2024/03/24 08:40:23;;;;;;;16.30;14.20;;;;;;;8.47;100.00;98783.46;88120;274;137738;-74
2024/03/24 08:42:25;;;;;;;17.70;15.20;;;;;;;8.48;100.00;98783.10;88143;266;22580;-75
2024/03/24 08:44:26;;;;;;;16.40;14.40;;;;;;;8.48;100.00;98780.84;87910;266;136661;-73
2024/03/24 08:46:28;;;;;;;17.50;14.80;;;;;;;8.51;100.00;98785.17;88025;270;22674;-75
2024/03/24 08:48:28;;;;;;;18.20;14.90;;;;;;;8.56;100.00;98780.73;88040;272;137872;-72
2024/03/24 08:50:29;;;;;;;15.60;13.70;;;;;;;8.61;100.00;98783.15;87071;275;23801;-73
2024/03/24 08:52:30;;;;;;;17.40;14.30;;;;;;;8.60;100.00;98777.10;86980;269;136494;-72
2024/03/24 08:54:31;;;;;;;18.50;14.20;;;;;;;8.59;100.00;98772.17;87818;273;22579;-73
2024/03/24 08:56:31;;;;;;;18.40;14.60;;;;;;;8.57;100.00;98772.75;87663;273;136965;-74
2024/03/24 08:58:34;;;;;;;19.00;15.60;;;;;;;8.57;100.00;98779.54;87121;264;23114;-75
2024/03/24 09:00:34;;;;;;;18.70;14.90;;;;;;;8.58;100.00;98796.31;86996;265;136679;-74
2024/03/24 09:02:36;;;;;;;16.70;14.90;;;;;;;8.62;100.00;98799.54;87032;273;22918;-77
2024/03/24 09:04:37;;;;;;;15.10;13.40;;;;;;;8.65;100.00;98792.84;87080;273;136707;-73
2024/03/24 09:06:38;;;;;;;18.80;15.20;;;;;;;8.65;100.00;98793.55;87164;265;22571;-72
2024/03/24 09:08:39;;;;;;;18.80;15.00;;;;;;;8.61;100.00;98794.46;87136;273;136693;-78
2024/03/24 09:10:40;;;;;;;17.80;14.50;;;;;;;8.55;100.00;98797.02;87792;273;22577;-70
2024/03/24 09:12:41;;;;;;;16.60;14.60;;;;;;;8.55;100.00;98791.42;87099;265;136817;-71
2024/03/24 09:14:44;;;;;;;15.70;13.60;;;;;;;8.57;100.00;98787.66;87236;267;25150;-68
2024/03/24 09:16:45;;;;;;;18.20;14.70;;;;;;;8.61;100.00;98789.08;87161;270;136807;-71
2024/03/24 09:18:46;;;;;;;18.10;15.10;;;;;;;8.64;100.00;98785.10;86936;267;25111;-74
2024/03/24 09:20:47;;;;;;;19.60;15.20;;;;;;;8.68;100.00;98781.56;87004;269;137381;-73
2024/03/24 09:22:48;;;;;;;16.70;14.80;;;;;;;8.71;100.00;98771.52;87109;269;22555;-70
2024/03/24 09:24:49;;;;;;;17.10;13.40;;;;;;;8.74;100.00;98763.25;86908;271;137173;-72